Maliotenam, Canada
Current Conditions -  °F | °C
As of 10:00 AM on Thursday 30 Oct 2014 (Local Time) from CYZV Reporting Station
Scattered Clouds Scattered Clouds  
Wind Chill: 36°   Ceiling: Unl
Heat Index: 43°   Visibility: 30mi
Dew Point: 36°   Wind: 13mph
Humidity: 76%   Direction: 290°WNW
Pressure: 29.6"   Gusts: 18mph
Location:  50.21°N, 66.19°W
Report Text: CYZV 301400Z 29011G16KT 30SM SCT037 06/02 A2960 RMK SC4 SLP027
Loading
Personal Weather Stations






























Interactive Weather Map
Tropical Storm Tracking
New forecast layout! Learn more

10-Day Weather Forecast

Advertisements
Track Severe Weather on mobile